createdAt,value
2022-12-28T00:00:11.192Z,6.93
2022-12-28T00:01:11.182Z,6.88
2022-12-28T00:02:11.259Z,6.81
2022-12-28T00:03:11.223Z,6.89
2022-12-28T00:04:11.169Z,6.89
2022-12-28T00:05:11.165Z,6.85
2022-12-28T00:06:11.173Z,6.79
2022-12-28T00:07:11.189Z,6.84
2022-12-28T00:08:11.168Z,6.79
2022-12-28T00:09:11.194Z,6.72
2022-12-28T00:10:11.181Z,6.79
2022-12-28T00:11:18.635Z,6.78
2022-12-28T00:12:11.188Z,6.67
2022-12-28T00:13:11.185Z,6.69
2022-12-28T00:14:11.195Z,6.69
2022-12-28T00:15:11.183Z,6.67
2022-12-28T00:16:11.217Z,6.70
2022-12-28T00:17:11.189Z,6.63
2022-12-28T00:18:11.199Z,6.67
2022-12-28T00:19:11.190Z,6.60
2022-12-28T00:20:11.198Z,6.66
2022-12-28T00:21:11.206Z,6.64
2022-12-28T00:22:11.206Z,6.69
2022-12-28T00:23:11.230Z,6.59
2022-12-28T00:24:11.204Z,6.62
2022-12-28T00:25:11.208Z,6.66
2022-12-28T00:26:11.204Z,6.57
2022-12-28T00:27:11.212Z,6.57
2022-12-28T00:28:11.214Z,6.62
2022-12-28T00:29:11.218Z,6.56
2022-12-28T00:30:11.215Z,6.51
2022-12-28T00:31:11.279Z,6.60
2022-12-28T00:32:11.219Z,6.59
2022-12-28T00:33:11.213Z,6.57
2022-12-28T00:34:11.223Z,6.57
2022-12-28T00:35:11.225Z,6.62
2022-12-28T00:36:11.227Z,6.59
2022-12-28T00:37:13.270Z,6.59
2022-12-28T00:38:11.231Z,6.66
2022-12-28T00:39:11.245Z,6.62
2022-12-28T00:40:11.235Z,6.60
2022-12-28T00:41:11.227Z,6.59
2022-12-28T00:42:11.234Z,6.49
2022-12-28T00:43:11.241Z,6.62
2022-12-28T00:44:11.255Z,6.48
2022-12-28T00:45:11.241Z,6.44
2022-12-28T00:46:11.302Z,6.49
2022-12-28T00:47:11.239Z,6.56
2022-12-28T00:48:11.246Z,6.52
2022-12-28T00:49:11.242Z,6.51
2022-12-28T00:50:11.249Z,6.60
2022-12-28T00:51:11.247Z,6.54
2022-12-28T00:52:11.246Z,6.49
2022-12-28T00:53:11.256Z,6.45
2022-12-28T00:54:11.267Z,6.49
2022-12-28T00:55:11.280Z,6.46
2022-12-28T00:56:11.265Z,6.48
2022-12-28T00:57:11.263Z,6.48
2022-12-28T00:58:11.264Z,6.48
2022-12-28T00:59:11.275Z,6.46
2022-12-28T01:00:11.262Z,6.44
2022-12-28T01:01:11.458Z,6.46
2022-12-28T01:02:11.487Z,6.48
2022-12-28T01:03:11.293Z,6.48
2022-12-28T01:04:11.272Z,6.36
2022-12-28T01:05:11.276Z,6.38
2022-12-28T01:06:11.282Z,6.45
2022-12-28T01:07:11.281Z,6.39
2022-12-28T01:08:11.283Z,6.41
2022-12-28T01:09:11.276Z,6.41
2022-12-28T01:10:11.299Z,6.33
2022-12-28T01:11:11.301Z,6.39
2022-12-28T01:12:11.281Z,6.35
2022-12-28T01:13:11.289Z,6.42
2022-12-28T01:14:11.283Z,6.39
2022-12-28T01:15:11.294Z,6.39
2022-12-28T01:16:11.309Z,6.39
2022-12-28T01:17:11.295Z,6.39
2022-12-28T01:18:12.678Z,6.38
2022-12-28T01:19:11.311Z,6.38
2022-12-28T01:20:11.294Z,6.44
2022-12-28T01:21:11.303Z,6.46
2022-12-28T01:22:11.296Z,6.36
2022-12-28T01:23:11.299Z,6.35
2022-12-28T01:24:11.298Z,6.26
2022-12-28T01:25:11.313Z,6.33
2022-12-28T01:26:11.316Z,6.31
2022-12-28T01:27:11.333Z,6.26
2022-12-28T01:28:11.305Z,6.31
2022-12-28T01:29:11.322Z,6.30
2022-12-28T01:30:11.319Z,6.27
2022-12-28T01:31:11.329Z,6.26
2022-12-28T01:32:11.360Z,6.20
2022-12-28T01:33:11.321Z,6.14
2022-12-28T01:34:11.323Z,6.22
2022-12-28T01:35:11.319Z,6.16
2022-12-28T01:36:11.317Z,6.24
2022-12-28T01:37:11.330Z,6.14
2022-12-28T01:38:11.321Z,6.12
2022-12-28T01:39:11.333Z,6.11
2022-12-28T01:40:11.332Z,6.09
2022-12-28T01:41:11.340Z,6.16
2022-12-28T01:42:11.345Z,6.20
2022-12-28T01:43:11.363Z,6.12
2022-12-28T01:44:11.339Z,6.17
2022-12-28T01:45:11.335Z,6.11
2022-12-28T01:46:11.354Z,6.05
2022-12-28T01:47:11.337Z,6.16
2022-12-28T01:48:11.344Z,6.02
2022-12-28T01:49:11.351Z,6.07
2022-12-28T01:50:11.343Z,6.09
2022-12-28T01:51:11.357Z,6.05
2022-12-28T01:52:11.346Z,6.04
2022-12-28T01:53:11.341Z,6.07
2022-12-28T01:54:11.347Z,6.02
2022-12-28T01:55:11.363Z,6.04
2022-12-28T01:56:11.356Z,6.02
2022-12-28T01:57:11.351Z,6.07
2022-12-28T01:58:11.361Z,6.01
2022-12-28T01:59:11.374Z,6.07
2022-12-28T02:00:11.361Z,6.08
2022-12-28T02:01:11.534Z,6.05
2022-12-28T02:02:11.548Z,6.08
2022-12-28T02:03:11.377Z,6.07
2022-12-28T02:04:11.387Z,6.08
2022-12-28T02:05:11.370Z,6.11
2022-12-28T02:06:11.363Z,6.07
2022-12-28T02:07:11.370Z,6.02
2022-12-28T02:08:11.377Z,5.97
2022-12-28T02:09:11.366Z,6.05
2022-12-28T02:10:44.226Z,6.11
2022-12-28T02:11:11.369Z,6.08
2022-12-28T02:12:11.382Z,6.04
2022-12-28T02:13:11.459Z,6.05
2022-12-28T02:14:11.387Z,6.02
2022-12-28T02:15:11.402Z,6.08
2022-12-28T02:16:11.513Z,6.09
2022-12-28T02:17:11.381Z,6.08
2022-12-28T02:18:11.410Z,6.07
2022-12-28T02:19:11.380Z,6.08
2022-12-28T02:20:11.388Z,6.01
2022-12-28T02:21:11.401Z,6.08
2022-12-28T02:22:11.399Z,6.05
2022-12-28T02:23:11.400Z,6.02
2022-12-28T02:24:11.394Z,6.04
2022-12-28T02:25:13.881Z,5.98
2022-12-28T02:26:11.404Z,6.05
2022-12-28T02:27:11.392Z,6.02
2022-12-28T02:28:11.391Z,6.05
2022-12-28T02:29:11.404Z,6.04
2022-12-28T02:30:11.394Z,6.05
2022-12-28T02:31:11.445Z,6.04
2022-12-28T02:32:11.406Z,6.07
2022-12-28T02:33:11.409Z,6.09
2022-12-28T02:34:11.407Z,6.11
2022-12-28T02:35:11.407Z,6.08
2022-12-28T02:36:17.987Z,6.08
2022-12-28T02:37:11.413Z,6.11
2022-12-28T02:38:11.420Z,6.04
2022-12-28T02:39:11.413Z,6.05
2022-12-28T02:40:11.413Z,6.04
2022-12-28T02:41:11.420Z,6.12
2022-12-28T02:42:11.433Z,6.04
2022-12-28T02:43:11.420Z,6.01
2022-12-28T02:44:11.424Z,6.09
2022-12-28T02:45:11.426Z,6.17
2022-12-28T02:46:11.490Z,6.16
2022-12-28T02:47:11.453Z,6.12
2022-12-28T02:48:11.419Z,6.14
2022-12-28T02:49:11.424Z,6.04
2022-12-28T02:50:11.422Z,6.11
2022-12-28T02:51:11.426Z,6.09
2022-12-28T02:52:11.436Z,6.12
2022-12-28T02:53:11.433Z,6.02
2022-12-28T02:54:11.429Z,6.16
2022-12-28T02:55:11.433Z,6.07
2022-12-28T02:56:11.439Z,6.12
2022-12-28T02:57:11.440Z,6.12
2022-12-28T02:58:11.444Z,6.19
2022-12-28T02:59:11.443Z,6.02
2022-12-28T03:00:11.443Z,6.09
2022-12-28T03:01:11.529Z,6.01
2022-12-28T03:02:11.685Z,6.12
2022-12-28T03:03:11.504Z,6.12
2022-12-28T03:04:11.453Z,5.99
2022-12-28T03:05:11.453Z,6.17
2022-12-28T03:06:17.578Z,5.99
2022-12-28T03:07:11.447Z,6.04
2022-12-28T03:08:11.445Z,6.08
2022-12-28T03:09:11.451Z,6.07
2022-12-28T03:10:11.451Z,6.02
2022-12-28T03:11:11.463Z,6.08
2022-12-28T03:12:11.460Z,6.16
2022-12-28T03:13:11.461Z,6.12
2022-12-28T03:14:11.460Z,6.07
2022-12-28T03:15:11.457Z,6.12
2022-12-28T03:16:11.504Z,6.11
2022-12-28T03:17:11.472Z,6.17
2022-12-28T03:18:11.468Z,6.19
2022-12-28T03:19:11.490Z,6.01
2022-12-28T03:20:11.474Z,6.11
2022-12-28T03:21:11.474Z,6.12
2022-12-28T03:22:11.472Z,6.05
2022-12-28T03:23:11.485Z,6.17
2022-12-28T03:24:11.476Z,6.09
2022-12-28T03:25:11.478Z,6.16
2022-12-28T03:26:11.476Z,6.16
2022-12-28T03:27:11.475Z,6.12
2022-12-28T03:28:11.482Z,6.14
2022-12-28T03:29:11.483Z,6.24
2022-12-28T03:30:11.501Z,6.16
2022-12-28T03:31:11.554Z,6.20
2022-12-28T03:32:11.491Z,6.22
2022-12-28T03:33:11.488Z,6.17
2022-12-28T03:34:11.490Z,6.26
2022-12-28T03:35:11.519Z,6.17
2022-12-28T03:36:11.486Z,6.27
2022-12-28T03:37:11.495Z,6.16
2022-12-28T03:38:11.488Z,6.20
2022-12-28T03:39:11.498Z,6.19
2022-12-28T03:40:11.496Z,6.27
2022-12-28T03:41:11.499Z,6.22
2022-12-28T03:42:11.492Z,6.22
2022-12-28T03:43:11.494Z,6.26
2022-12-28T03:44:11.494Z,6.28
2022-12-28T03:45:11.506Z,6.24
2022-12-28T03:46:11.627Z,6.27
2022-12-28T03:47:11.506Z,6.28
2022-12-28T03:48:11.499Z,6.27
2022-12-28T03:49:11.503Z,6.27
2022-12-28T03:50:11.507Z,6.30
2022-12-28T03:51:11.543Z,6.38
2022-12-28T03:52:11.517Z,6.33
2022-12-28T03:53:11.529Z,6.41
2022-12-28T03:54:11.531Z,6.38
2022-12-28T03:55:11.535Z,6.39
2022-12-28T03:56:11.521Z,6.36
2022-12-28T03:57:11.540Z,6.48
2022-12-28T03:58:11.528Z,6.42
2022-12-28T03:59:11.534Z,6.36
2022-12-28T04:00:11.533Z,6.49
2022-12-28T04:01:11.667Z,6.41
2022-12-28T04:02:11.708Z,6.48
2022-12-28T04:03:11.575Z,6.49
2022-12-28T04:04:11.531Z,6.51
2022-12-28T04:05:11.545Z,6.45
2022-12-28T04:06:11.529Z,6.45
2022-12-28T04:07:11.553Z,6.42
2022-12-28T04:08:11.529Z,6.42
2022-12-28T04:09:11.542Z,6.42
2022-12-28T04:10:11.541Z,6.45
2022-12-28T04:11:11.549Z,6.41
2022-12-28T04:12:11.543Z,6.48
2022-12-28T04:13:11.539Z,6.45
2022-12-28T04:14:11.555Z,6.45
2022-12-28T04:15:11.547Z,6.45
2022-12-28T04:16:11.662Z,6.46
2022-12-28T04:17:11.545Z,6.46
2022-12-28T04:18:11.591Z,6.44
2022-12-28T04:19:11.547Z,6.45
2022-12-28T04:20:11.549Z,6.48
2022-12-28T04:21:11.555Z,6.49
2022-12-28T04:22:11.555Z,6.52
2022-12-28T04:23:11.586Z,6.49
2022-12-28T04:24:11.555Z,6.44
2022-12-28T04:25:11.563Z,6.49
2022-12-28T04:26:11.565Z,6.49
2022-12-28T04:27:11.560Z,6.44
2022-12-28T04:28:11.578Z,6.48
2022-12-28T04:29:11.592Z,6.49
2022-12-28T04:30:11.568Z,6.45
2022-12-28T04:31:11.619Z,6.45
2022-12-28T04:32:11.564Z,6.46
2022-12-28T04:33:11.577Z,6.49
2022-12-28T04:34:11.578Z,6.41
2022-12-28T04:35:11.582Z,6.45
2022-12-28T04:36:11.584Z,6.51
2022-12-28T04:37:11.574Z,6.45
2022-12-28T04:38:11.578Z,6.49
2022-12-28T04:39:11.621Z,6.51
2022-12-28T04:40:11.579Z,6.49
2022-12-28T04:41:11.619Z,6.45
2022-12-28T04:42:11.590Z,6.42
2022-12-28T04:43:11.586Z,6.45
2022-12-28T04:44:11.583Z,6.44
2022-12-28T04:45:13.673Z,6.46
2022-12-28T04:46:11.681Z,6.48
2022-12-28T04:47:11.600Z,6.48
2022-12-28T04:48:11.608Z,6.48
2022-12-28T04:49:11.592Z,6.49
2022-12-28T04:50:11.601Z,6.49
2022-12-28T04:51:11.600Z,6.45
2022-12-28T04:52:11.605Z,6.45
2022-12-28T04:53:11.604Z,6.48
2022-12-28T04:54:11.609Z,6.44
2022-12-28T04:55:33.104Z,6.49
2022-12-28T04:56:11.610Z,6.44
2022-12-28T04:57:11.610Z,6.48
2022-12-28T04:58:11.607Z,6.45
2022-12-28T04:59:11.618Z,6.45
2022-12-28T05:00:11.620Z,6.33
2022-12-28T05:01:11.785Z,6.33
2022-12-28T05:02:11.748Z,6.36
2022-12-28T05:03:11.623Z,6.28
2022-12-28T05:04:11.622Z,6.28
2022-12-28T05:05:11.628Z,6.35
2022-12-28T05:06:11.631Z,6.22
2022-12-28T05:07:11.628Z,6.30
2022-12-28T05:08:11.625Z,6.28
2022-12-28T05:09:11.629Z,6.30
2022-12-28T05:10:11.638Z,6.26
2022-12-28T05:11:11.661Z,6.28
2022-12-28T05:12:11.635Z,6.24
2022-12-28T05:13:11.629Z,6.26
2022-12-28T05:14:11.639Z,6.22
2022-12-28T05:15:11.652Z,6.28
2022-12-28T05:16:11.745Z,6.31
2022-12-28T05:17:11.648Z,6.26
2022-12-28T05:18:11.662Z,6.33
2022-12-28T05:19:11.644Z,6.26
2022-12-28T05:20:11.647Z,6.30
2022-12-28T05:21:11.643Z,6.26
2022-12-28T05:22:11.651Z,6.30
2022-12-28T05:23:11.643Z,6.30
2022-12-28T05:24:11.662Z,6.26
2022-12-28T05:25:11.644Z,6.31
2022-12-28T05:26:11.662Z,6.30
2022-12-28T05:27:11.685Z,6.28
2022-12-28T05:28:11.653Z,6.28
2022-12-28T05:29:11.655Z,6.31
2022-12-28T05:30:11.659Z,6.26
2022-12-28T05:31:11.707Z,6.26
2022-12-28T05:32:11.678Z,6.30
2022-12-28T05:33:11.666Z,6.24
2022-12-28T05:34:11.666Z,6.26
2022-12-28T05:35:11.667Z,6.16
2022-12-28T05:36:11.669Z,6.20
2022-12-28T05:37:15.663Z,6.16
2022-12-28T05:38:11.667Z,6.12
2022-12-28T05:39:11.675Z,6.12
2022-12-28T05:40:11.674Z,6.14
2022-12-28T05:41:11.669Z,6.09
2022-12-28T05:42:11.677Z,6.09
2022-12-28T05:43:11.694Z,6.04
2022-12-28T05:44:11.676Z,6.08
2022-12-28T05:45:11.673Z,6.02
2022-12-28T05:46:11.690Z,5.99
2022-12-28T05:47:11.730Z,6.01
2022-12-28T05:48:11.686Z,5.98
2022-12-28T05:49:11.680Z,5.98
2022-12-28T05:50:11.697Z,5.97
2022-12-28T05:51:11.695Z,5.94
2022-12-28T05:52:11.690Z,6.01
2022-12-28T05:53:11.695Z,5.99
2022-12-28T05:54:11.687Z,6.04
2022-12-28T05:55:11.686Z,6.01
2022-12-28T05:56:14.261Z,5.99
2022-12-28T05:57:11.694Z,6.01
2022-12-28T05:58:11.693Z,6.04
2022-12-28T05:59:11.721Z,6.07
2022-12-28T06:00:11.695Z,6.08
2022-12-28T06:01:11.773Z,6.04
2022-12-28T06:02:11.824Z,6.07
2022-12-28T06:03:11.855Z,6.12
2022-12-28T06:04:11.694Z,6.12
2022-12-28T06:05:11.724Z,6.17
2022-12-28T06:06:11.694Z,6.09
2022-12-28T06:07:11.705Z,6.08
2022-12-28T06:08:11.714Z,6.14
2022-12-28T06:09:11.695Z,6.14
2022-12-28T06:10:11.707Z,6.12
2022-12-28T06:11:11.704Z,6.05
2022-12-28T06:12:11.699Z,6.12
2022-12-28T06:13:11.710Z,6.12
2022-12-28T06:14:11.701Z,6.17
2022-12-28T06:15:11.803Z,6.14
2022-12-28T06:16:11.732Z,6.11
2022-12-28T06:17:11.702Z,6.16
2022-12-28T06:18:11.714Z,6.12
2022-12-28T06:19:11.731Z,6.12
2022-12-28T06:20:11.729Z,6.14
2022-12-28T06:21:11.718Z,6.08
2022-12-28T06:22:11.711Z,6.09
2022-12-28T06:23:11.718Z,6.16
2022-12-28T06:24:11.742Z,6.12
2022-12-28T06:25:11.720Z,6.16
2022-12-28T06:26:11.715Z,6.08
2022-12-28T06:27:11.719Z,6.14
2022-12-28T06:28:11.718Z,6.14
2022-12-28T06:29:11.726Z,6.14
2022-12-28T06:30:11.713Z,6.09
2022-12-28T06:31:11.751Z,6.22
2022-12-28T06:32:11.799Z,6.12
2022-12-28T06:33:11.727Z,6.14
2022-12-28T06:34:11.726Z,6.19
2022-12-28T06:35:11.732Z,6.20
2022-12-28T06:36:17.718Z,6.20
2022-12-28T06:37:11.723Z,6.24
2022-12-28T06:38:11.731Z,6.24
2022-12-28T06:39:11.727Z,6.19
2022-12-28T06:40:11.731Z,6.28
2022-12-28T06:41:13.822Z,6.26
2022-12-28T06:42:11.739Z,6.11
2022-12-28T06:43:11.737Z,6.28
2022-12-28T06:44:11.732Z,6.11
2022-12-28T06:45:11.740Z,6.20
2022-12-28T06:46:11.817Z,6.16
2022-12-28T06:47:11.774Z,6.26
2022-12-28T06:48:11.737Z,6.16
2022-12-28T06:49:11.734Z,6.22
2022-12-28T06:50:11.744Z,6.26
2022-12-28T06:51:11.750Z,6.24
2022-12-28T06:52:11.737Z,6.24
2022-12-28T06:53:11.739Z,6.27
2022-12-28T06:54:11.755Z,6.33
2022-12-28T06:55:11.748Z,6.33
2022-12-28T06:56:11.757Z,6.31
2022-12-28T06:57:11.751Z,6.24
2022-12-28T06:58:11.745Z,6.35
2022-12-28T06:59:11.755Z,6.30
2022-12-28T07:00:11.752Z,6.26
2022-12-28T07:01:11.881Z,6.24
2022-12-28T07:02:11.933Z,6.30
2022-12-28T07:03:11.805Z,6.30
2022-12-28T07:04:11.758Z,6.36
2022-12-28T07:05:11.752Z,6.33
2022-12-28T07:06:11.754Z,6.30
2022-12-28T07:07:11.756Z,6.26
2022-12-28T07:08:12.906Z,6.44
2022-12-28T07:09:11.762Z,6.31
2022-12-28T07:10:11.770Z,6.41
2022-12-28T07:11:11.786Z,6.33
2022-12-28T07:12:11.758Z,6.45
2022-12-28T07:13:11.771Z,6.39
2022-12-28T07:14:11.767Z,6.42
2022-12-28T07:15:11.767Z,6.41
2022-12-28T07:16:11.848Z,6.44
2022-12-28T07:17:11.781Z,6.45
2022-12-28T07:18:11.766Z,6.41
2022-12-28T07:19:11.803Z,6.46
2022-12-28T07:20:11.785Z,6.44
2022-12-28T07:21:11.785Z,6.45
2022-12-28T07:22:11.782Z,6.49
2022-12-28T07:23:11.780Z,6.49
2022-12-28T07:24:11.781Z,6.48
2022-12-28T07:25:11.775Z,6.51
2022-12-28T07:26:11.778Z,6.49
2022-12-28T07:27:11.787Z,6.52
2022-12-28T07:28:11.798Z,6.62
2022-12-28T07:29:11.788Z,6.52
2022-12-28T07:30:11.791Z,6.59
2022-12-28T07:31:11.842Z,6.63
2022-12-28T07:32:11.791Z,6.52
2022-12-28T07:33:11.795Z,6.60
2022-12-28T07:34:11.798Z,6.62
2022-12-28T07:35:11.821Z,6.60
2022-12-28T07:36:11.798Z,6.69
2022-12-28T07:37:11.807Z,6.64
2022-12-28T07:38:14.088Z,6.67
2022-12-28T07:39:11.791Z,6.67
2022-12-28T07:40:11.796Z,6.75
2022-12-28T07:41:11.809Z,6.72
2022-12-28T07:42:11.805Z,6.78
2022-12-28T07:43:11.800Z,6.84
2022-12-28T07:44:11.824Z,6.77
2022-12-28T07:45:11.809Z,6.75
2022-12-28T07:46:11.959Z,6.78
2022-12-28T07:47:11.805Z,6.84
2022-12-28T07:48:11.816Z,6.75
2022-12-28T07:49:11.815Z,6.95
2022-12-28T07:50:11.823Z,6.93
2022-12-28T07:51:11.840Z,6.97
2022-12-28T07:52:11.822Z,6.84
2022-12-28T07:53:12.509Z,6.92
2022-12-28T07:54:11.830Z,6.88
2022-12-28T07:55:11.822Z,6.89
2022-12-28T07:56:11.826Z,6.89
2022-12-28T07:57:11.829Z,6.93
2022-12-28T07:58:11.820Z,6.95
2022-12-28T07:59:11.822Z,6.95
2022-12-28T08:00:11.823Z,6.88
2022-12-28T08:01:12.012Z,6.96
2022-12-28T08:02:11.966Z,6.97
2022-12-28T08:03:11.853Z,6.99
2022-12-28T08:04:11.833Z,6.92
2022-12-28T08:05:11.835Z,6.96
2022-12-28T08:06:11.847Z,6.97
2022-12-28T08:07:11.862Z,6.99
2022-12-28T08:08:11.847Z,7.00
2022-12-28T08:09:11.843Z,7.02
2022-12-28T08:10:11.850Z,7.02
2022-12-28T08:11:11.848Z,7.03
2022-12-28T08:12:11.861Z,7.05
2022-12-28T08:13:11.859Z,6.99
2022-12-28T08:14:11.859Z,7.06
2022-12-28T08:15:11.855Z,7.00
2022-12-28T08:16:12.028Z,7.05
2022-12-28T08:17:14.861Z,7.07
2022-12-28T08:18:11.859Z,7.02
2022-12-28T08:19:11.860Z,7.05
2022-12-28T08:20:11.859Z,7.13
2022-12-28T08:21:11.858Z,7.17
2022-12-28T08:22:11.867Z,7.10
2022-12-28T08:23:11.885Z,7.20
2022-12-28T08:24:11.861Z,7.15
2022-12-28T08:25:11.879Z,7.23
2022-12-28T08:26:11.867Z,7.29
2022-12-28T08:27:11.867Z,7.24
2022-12-28T08:28:11.868Z,7.18
2022-12-28T08:29:11.870Z,7.23
2022-12-28T08:30:11.883Z,7.21
2022-12-28T08:31:11.973Z,7.29
2022-12-28T08:32:11.886Z,7.36
2022-12-28T08:33:11.896Z,7.35
2022-12-28T08:34:11.880Z,7.40
2022-12-28T08:35:11.922Z,7.38
2022-12-28T08:36:11.886Z,7.47
2022-12-28T08:37:11.894Z,7.45
2022-12-28T08:38:11.890Z,7.42
2022-12-28T08:39:11.940Z,7.40
2022-12-28T08:40:11.898Z,7.39
2022-12-28T08:41:11.896Z,7.43
2022-12-28T08:42:11.908Z,7.50
2022-12-28T08:43:11.904Z,7.48
2022-12-28T08:44:11.913Z,7.54
2022-12-28T08:45:11.907Z,7.51
2022-12-28T08:46:12.121Z,7.66
2022-12-28T08:47:11.934Z,7.54
2022-12-28T08:48:11.915Z,7.58
2022-12-28T08:49:11.909Z,7.60
2022-12-28T08:50:12.422Z,7.60
2022-12-28T08:51:11.916Z,7.61
2022-12-28T08:52:11.926Z,7.61
2022-12-28T08:53:11.923Z,7.61
2022-12-28T08:54:11.940Z,7.60
2022-12-28T08:55:11.941Z,7.61
2022-12-28T08:56:11.926Z,7.66
2022-12-28T08:57:11.923Z,7.67
2022-12-28T08:58:11.934Z,7.67
2022-12-28T08:59:11.929Z,7.72
2022-12-28T09:00:11.935Z,7.72
2022-12-28T09:01:12.096Z,7.73
2022-12-28T09:02:12.067Z,7.69
2022-12-28T09:03:12.059Z,7.73
2022-12-28T09:04:11.952Z,7.75
2022-12-28T09:05:11.941Z,7.73
2022-12-28T09:06:11.949Z,7.79
2022-12-28T09:07:11.953Z,7.85
2022-12-28T09:08:11.944Z,7.87
2022-12-28T09:09:11.958Z,7.88
2022-12-28T09:10:11.998Z,7.79
2022-12-28T09:11:11.996Z,7.77
2022-12-28T09:12:11.961Z,7.77
2022-12-28T09:13:11.967Z,7.90
2022-12-28T09:14:15.727Z,7.85
2022-12-28T09:15:11.978Z,7.83
2022-12-28T09:16:12.016Z,7.97
2022-12-28T09:17:11.963Z,8.01
2022-12-28T09:18:11.972Z,7.90
2022-12-28T09:19:11.976Z,8.06
2022-12-28T09:20:11.977Z,7.97
2022-12-28T09:21:11.980Z,8.03
2022-12-28T09:22:11.984Z,8.00
2022-12-28T09:23:11.986Z,8.15
2022-12-28T09:24:11.988Z,8.03
2022-12-28T09:25:11.991Z,8.08
2022-12-28T09:26:12.001Z,8.08
2022-12-28T09:27:12.017Z,8.12
2022-12-28T09:28:11.993Z,8.18
2022-12-28T09:29:11.992Z,8.18
2022-12-28T09:30:11.997Z,8.16
2022-12-28T09:31:12.028Z,8.15
2022-12-28T09:32:12.002Z,8.20
2022-12-28T09:33:12.002Z,8.23
2022-12-28T09:35:12.011Z,8.24
2022-12-28T09:36:12.018Z,8.20
2022-12-28T09:37:12.007Z,8.27
2022-12-28T09:38:12.021Z,8.24
2022-12-28T09:39:12.096Z,8.30
2022-12-28T09:40:12.020Z,8.27
2022-12-28T09:41:12.023Z,8.24
2022-12-28T09:42:12.043Z,8.33
2022-12-28T09:43:12.048Z,8.33
2022-12-28T09:44:12.040Z,8.31
2022-12-28T09:45:12.028Z,8.33
2022-12-28T09:46:12.095Z,8.31
2022-12-28T09:47:12.050Z,8.28
2022-12-28T09:48:12.039Z,8.33
2022-12-28T09:49:12.040Z,8.41
2022-12-28T09:50:12.059Z,8.44
2022-12-28T09:51:12.056Z,8.46
2022-12-28T09:52:12.049Z,8.46
2022-12-28T09:53:12.046Z,8.34
2022-12-28T09:54:12.059Z,8.49
2022-12-28T09:55:12.053Z,8.48
2022-12-28T09:56:12.057Z,8.48
2022-12-28T09:57:12.056Z,8.56
2022-12-28T09:58:12.071Z,8.61
2022-12-28T09:59:12.082Z,8.73
2022-12-28T10:00:12.076Z,8.78
2022-12-28T10:01:12.130Z,8.85
2022-12-28T10:02:12.227Z,8.85
2022-12-28T10:03:12.132Z,8.85
2022-12-28T10:04:12.086Z,9.00
2022-12-28T10:05:12.078Z,9.08
2022-12-28T10:06:12.088Z,9.02
2022-12-28T10:07:12.081Z,8.95
2022-12-28T10:08:12.085Z,8.99
2022-12-28T10:09:12.092Z,8.95
2022-12-28T10:10:12.099Z,9.13
2022-12-28T10:11:12.094Z,9.11
2022-12-28T10:12:12.095Z,9.11
2022-12-28T10:13:37.066Z,8.97
2022-12-28T10:14:12.108Z,9.10
2022-12-28T10:15:12.128Z,8.94
2022-12-28T10:16:12.157Z,8.97
2022-12-28T10:17:12.121Z,9.06
2022-12-28T10:18:12.123Z,8.99
2022-12-28T10:19:12.131Z,9.08
2022-12-28T10:20:12.126Z,9.06
2022-12-28T10:21:12.129Z,9.11
2022-12-28T10:22:12.133Z,9.14
2022-12-28T10:23:12.132Z,9.13
2022-12-28T10:24:30.916Z,9.14
2022-12-28T10:25:12.134Z,9.25
2022-12-28T10:26:12.147Z,9.28
2022-12-28T10:27:12.149Z,9.19
2022-12-28T10:28:12.140Z,9.23
2022-12-28T10:29:12.168Z,9.22
2022-12-28T10:30:12.157Z,9.26
2022-12-28T10:31:12.240Z,9.23
2022-12-28T10:32:12.164Z,9.36
2022-12-28T10:33:13.958Z,9.32
2022-12-28T10:34:12.187Z,9.34
2022-12-28T10:35:12.172Z,9.36
2022-12-28T10:36:12.172Z,9.36
2022-12-28T10:37:14.079Z,9.37
2022-12-28T10:38:12.204Z,9.37
2022-12-28T10:39:12.189Z,9.32
2022-12-28T10:40:12.184Z,9.43
2022-12-28T10:41:12.189Z,9.43
2022-12-28T10:42:12.194Z,9.44
2022-12-28T10:43:12.193Z,9.48
2022-12-28T10:44:38.406Z,9.51
2022-12-28T10:45:12.196Z,9.61
2022-12-28T10:46:12.205Z,9.50
2022-12-28T10:47:12.229Z,9.61
2022-12-28T10:48:12.209Z,9.58
2022-12-28T10:50:36.691Z,9.68
2022-12-28T10:51:12.236Z,9.65
2022-12-28T10:52:12.223Z,9.61
2022-12-28T10:53:12.226Z,9.66
2022-12-28T10:54:12.234Z,9.66
2022-12-28T10:55:12.238Z,9.69
2022-12-28T10:56:12.241Z,9.74
2022-12-28T10:57:12.244Z,9.72
2022-12-28T10:58:29.167Z,9.73
2022-12-28T10:59:12.250Z,9.74
2022-12-28T11:00:12.248Z,9.84
2022-12-28T11:01:12.464Z,9.72
2022-12-28T11:02:12.399Z,9.87
2022-12-28T11:03:12.397Z,9.83
2022-12-28T11:03:21.271Z,9.66
2022-12-28T11:04:12.262Z,9.84
2022-12-28T11:05:12.277Z,9.84
2022-12-28T11:06:12.282Z,9.98
2022-12-28T11:07:12.271Z,9.99
2022-12-28T11:08:12.277Z,9.94
2022-12-28T11:09:12.276Z,9.98
2022-12-28T11:10:12.305Z,9.92
2022-12-28T11:11:12.292Z,9.99
2022-12-28T11:12:12.289Z,9.98
2022-12-28T11:13:14.758Z,10.02
2022-12-28T11:14:12.298Z,9.97
2022-12-28T11:15:12.307Z,9.99
2022-12-28T11:16:12.331Z,10.02
2022-12-28T11:17:12.308Z,10.04
2022-12-28T11:18:12.327Z,10.05
2022-12-28T11:19:12.339Z,10.07
2022-12-28T11:20:12.327Z,10.15
2022-12-28T11:21:12.323Z,10.10
2022-12-28T11:22:12.336Z,10.15
2022-12-28T11:23:12.329Z,10.09
2022-12-28T11:24:12.339Z,10.12
2022-12-28T11:25:12.338Z,10.16
2022-12-28T11:26:12.358Z,10.07
2022-12-28T11:27:12.355Z,10.12
2022-12-28T11:28:12.362Z,10.10
2022-12-28T11:29:12.357Z,10.17
2022-12-28T11:30:17.152Z,10.10
2022-12-28T11:31:12.368Z,10.10
2022-12-28T11:32:12.372Z,10.07
2022-12-28T11:33:12.373Z,10.09
2022-12-28T11:34:12.379Z,10.10
2022-12-28T11:35:12.400Z,10.07
2022-12-28T11:36:12.378Z,10.01
2022-12-28T11:37:12.391Z,10.02
2022-12-28T11:38:12.386Z,10.05
2022-12-28T11:39:12.392Z,10.02
2022-12-28T11:40:12.394Z,10.01
2022-12-28T11:41:12.404Z,10.01
2022-12-28T11:42:38.549Z,9.98
2022-12-28T11:43:12.406Z,10.07
2022-12-28T11:44:12.420Z,10.02
2022-12-28T11:45:12.420Z,10.01
2022-12-28T11:46:12.450Z,10.01
2022-12-28T11:47:12.420Z,10.04
2022-12-28T11:48:12.429Z,10.05
2022-12-28T11:49:12.433Z,9.98
2022-12-28T11:50:12.443Z,10.02
2022-12-28T11:51:12.464Z,9.99
2022-12-28T11:52:12.441Z,10.10
2022-12-28T11:53:14.096Z,10.07
2022-12-28T11:54:12.446Z,10.16
2022-12-28T11:55:12.465Z,10.09
2022-12-28T11:56:12.454Z,10.12
2022-12-28T11:57:12.461Z,10.13
2022-12-28T11:58:12.461Z,10.09
2022-12-28T11:59:12.466Z,10.17
2022-12-28T12:00:15.891Z,10.13
2022-12-28T12:01:12.560Z,10.13
2022-12-28T12:02:12.524Z,10.10
2022-12-28T12:03:12.545Z,10.12
2022-12-28T12:04:12.492Z,10.09
2022-12-28T12:05:12.491Z,10.15
2022-12-28T12:06:12.500Z,10.17
2022-12-28T12:07:12.535Z,10.12
2022-12-28T12:08:12.555Z,10.16
2022-12-28T12:09:12.527Z,10.20
2022-12-28T12:10:12.524Z,10.17
2022-12-28T12:11:12.520Z,10.20
2022-12-28T12:12:17.287Z,10.17
2022-12-28T12:13:12.529Z,10.17
2022-12-28T12:14:12.527Z,10.16
2022-12-28T12:15:12.554Z,10.17
2022-12-28T12:16:12.540Z,10.16
2022-12-28T12:17:12.538Z,10.15
2022-12-28T12:18:12.538Z,10.10
2022-12-28T12:19:12.546Z,10.17
2022-12-28T12:20:12.571Z,10.10
2022-12-28T12:21:16.004Z,10.13
2022-12-28T12:22:12.564Z,10.13
2022-12-28T12:23:12.583Z,10.12
2022-12-28T12:24:12.568Z,10.15
2022-12-28T12:25:12.574Z,10.15
2022-12-28T12:26:12.577Z,10.15
2022-12-28T12:27:13.401Z,10.23
2022-12-28T12:28:12.584Z,10.17
2022-12-28T12:29:12.578Z,10.20
2022-12-28T12:30:12.663Z,10.20
2022-12-28T12:31:12.678Z,10.23
2022-12-28T12:32:12.600Z,10.22
2022-12-28T12:33:12.597Z,10.28
2022-12-28T12:34:19.061Z,10.35
2022-12-28T12:35:12.607Z,10.23
2022-12-28T12:36:12.620Z,10.40
2022-12-28T12:37:12.629Z,10.42
2022-12-28T12:38:12.625Z,10.38
2022-12-28T12:39:12.659Z,10.49
2022-12-28T12:40:12.631Z,10.49
2022-12-28T12:41:12.658Z,10.59
2022-12-28T12:42:12.646Z,10.60
2022-12-28T12:43:12.650Z,10.59
2022-12-28T12:44:12.654Z,10.63
2022-12-28T12:45:12.644Z,10.69
2022-12-28T12:46:12.697Z,10.76
2022-12-28T12:47:12.661Z,10.76
2022-12-28T12:48:12.660Z,10.68
2022-12-28T12:49:12.705Z,10.72
2022-12-28T12:50:12.732Z,10.67
2022-12-28T12:51:12.680Z,10.75
2022-12-28T12:52:12.686Z,10.69
2022-12-28T12:53:12.681Z,10.67
2022-12-28T12:54:12.698Z,10.64
2022-12-28T12:55:12.717Z,10.68
2022-12-28T12:56:12.696Z,10.63
2022-12-28T12:57:12.700Z,10.61
2022-12-28T12:58:12.713Z,10.63
2022-12-28T12:59:12.712Z,10.64
2022-12-28T13:00:12.720Z,10.67
2022-12-28T13:01:12.901Z,10.56
2022-12-28T13:02:12.930Z,10.60
2022-12-28T13:03:12.768Z,10.61
2022-12-28T13:04:12.740Z,10.53
2022-12-28T13:05:12.747Z,10.56
2022-12-28T13:06:12.759Z,10.51
2022-12-28T13:07:12.760Z,10.49
2022-12-28T13:08:12.763Z,10.46
2022-12-28T13:09:12.761Z,10.41
2022-12-28T13:10:12.766Z,10.41
2022-12-28T13:11:12.783Z,10.44
2022-12-28T13:12:12.775Z,10.48
2022-12-28T13:13:12.785Z,10.46
2022-12-28T13:14:12.777Z,10.44
2022-12-28T13:15:13.102Z,10.35